sensor_id;sensor_type;location;lat;lon;timestamp;temperature;humidity
9271;DHT22;4673;53.458;9.940;2022-09-12T00:01:05;11.50;99.90
9271;DHT22;4673;53.458;9.940;2022-09-12T00:03:30;11.40;99.90
9271;DHT22;4673;53.458;9.940;2022-09-12T00:05:56;11.40;99.90
9271;DHT22;4673;53.458;9.940;2022-09-12T00:08:21;11.40;99.90
9271;DHT22;4673;53.458;9.940;2022-09-12T00:10:47;11.40;99.90
9271;DHT22;4673;53.458;9.940;2022-09-12T00:13:13;11.40;99.90
9271;DHT22;4673;53.458;9.940;2022-09-12T00:15:41;11.40;99.90
9271;DHT22;4673;53.458;9.940;2022-09-12T00:18:15;11.30;99.90
9271;DHT22;4673;53.458;9.940;2022-09-12T00:20:46;11.30;99.90
9271;DHT22;4673;53.458;9.940;2022-09-12T00:23:12;11.30;99.90
9271;DHT22;4673;53.458;9.940;2022-09-12T00:25:43;11.30;99.90
9271;DHT22;4673;53.458;9.940;2022-09-12T00:28:09;11.20;99.90
9271;DHT22;4673;53.458;9.940;2022-09-12T00:30:40;11.30;99.90
9271;DHT22;4673;53.458;9.940;2022-09-12T00:33:06;11.20;99.90
9271;DHT22;4673;53.458;9.940;2022-09-12T00:35:31;11.20;99.90
9271;DHT22;4673;53.458;9.940;2022-09-12T00:37:57;11.20;99.90
9271;DHT22;4673;53.458;9.940;2022-09-12T00:40:23;11.30;99.90
9271;DHT22;4673;53.458;9.940;2022-09-12T00:42:49;11.20;99.90
9271;DHT22;4673;53.458;9.940;2022-09-12T00:45:22;11.20;99.90
9271;DHT22;4673;53.458;9.940;2022-09-12T00:47:49;11.20;99.90
9271;DHT22;4673;53.458;9.940;2022-09-12T00:50:15;11.20;99.90
9271;DHT22;4673;53.458;9.940;2022-09-12T00:52:51;11.20;99.90
9271;DHT22;4673;53.458;9.940;2022-09-12T00:55:25;11.20;99.90
9271;DHT22;4673;53.458;9.940;2022-09-12T00:57:59;11.10;99.90
9271;DHT22;4673;53.458;9.940;2022-09-12T01:00:27;11.20;99.90
9271;DHT22;4673;53.458;9.940;2022-09-12T01:03:12;11.20;99.90
9271;DHT22;4673;53.458;9.940;2022-09-12T01:05:46;11.10;99.90
9271;DHT22;4673;53.458;9.940;2022-09-12T01:08:16;11.10;99.90
9271;DHT22;4673;53.458;9.940;2022-09-12T01:10:42;11.10;99.90
9271;DHT22;4673;53.458;9.940;2022-09-12T01:13:09;11.10;99.90
9271;DHT22;4673;53.458;9.940;2022-09-12T01:15:38;11.10;99.90
9271;DHT22;4673;53.458;9.940;2022-09-12T01:26:33;11.00;99.90
9271;DHT22;4673;53.458;9.940;2022-09-12T01:32:01;11.10;99.90
9271;DHT22;4673;53.458;9.940;2022-09-12T01:34:52;11.10;99.90
9271;DHT22;4673;53.458;9.940;2022-09-12T01:37:30;11.10;99.90
9271;DHT22;4673;53.458;9.940;2022-09-12T01:40:14;11.00;99.90
9271;DHT22;4673;53.458;9.940;2022-09-12T01:45:34;11.00;99.90
9271;DHT22;4673;53.458;9.940;2022-09-12T01:48:20;11.00;99.90
9271;DHT22;4673;53.458;9.940;2022-09-12T01:51:09;11.00;99.90
9271;DHT22;4673;53.458;9.940;2022-09-12T01:53:41;11.00;99.90
9271;DHT22;4673;53.458;9.940;2022-09-12T01:56:34;10.90;99.90
9271;DHT22;4673;53.458;9.940;2022-09-12T01:59:04;10.90;99.90
9271;DHT22;4673;53.458;9.940;2022-09-12T02:01:33;10.90;99.90
9271;DHT22;4673;53.458;9.940;2022-09-12T02:04:13;10.90;99.90
9271;DHT22;4673;53.458;9.940;2022-09-12T02:09:38;10.80;99.90
9271;DHT22;4673;53.458;9.940;2022-09-12T02:12:07;10.90;99.90
9271;DHT22;4673;53.458;9.940;2022-09-12T02:14:41;10.70;99.90
9271;DHT22;4673;53.458;9.940;2022-09-12T02:17:11;10.80;99.90
9271;DHT22;4673;53.458;9.940;2022-09-12T02:19:58;10.80;99.90
9271;DHT22;4673;53.458;9.940;2022-09-12T02:22:26;10.80;99.90
9271;DHT22;4673;53.458;9.940;2022-09-12T02:24:58;10.80;99.90
9271;DHT22;4673;53.458;9.940;2022-09-12T02:30:03;10.70;99.90
9271;DHT22;4673;53.458;9.940;2022-09-12T02:33:05;10.70;99.90
9271;DHT22;4673;53.458;9.940;2022-09-12T02:35:44;10.70;99.90
9271;DHT22;4673;53.458;9.940;2022-09-12T02:38:39;10.60;99.90
9271;DHT22;4673;53.458;9.940;2022-09-12T02:41:06;10.70;99.90
9271;DHT22;4673;53.458;9.940;2022-09-12T02:43:31;10.60;99.90
9271;DHT22;4673;53.458;9.940;2022-09-12T02:45:57;10.60;99.90
9271;DHT22;4673;53.458;9.940;2022-09-12T02:48:27;10.60;99.90
9271;DHT22;4673;53.458;9.940;2022-09-12T02:50:53;10.50;99.90
9271;DHT22;4673;53.458;9.940;2022-09-12T02:53:19;10.50;99.90
9271;DHT22;4673;53.458;9.940;2022-09-12T02:55:45;10.50;99.90
9271;DHT22;4673;53.458;9.940;2022-09-12T02:58:16;10.50;99.90
9271;DHT22;4673;53.458;9.940;2022-09-12T03:24:53;10.30;99.90
9271;DHT22;4673;53.458;9.940;2022-09-12T03:27:29;10.30;99.90
9271;DHT22;4673;53.458;9.940;2022-09-12T03:29:56;10.30;99.90
9271;DHT22;4673;53.458;9.940;2022-09-12T03:35:10;10.40;99.90
9271;DHT22;4673;53.458;9.940;2022-09-12T03:37:36;10.40;99.90
9271;DHT22;4673;53.458;9.940;2022-09-12T03:40:04;10.30;99.90
9271;DHT22;4673;53.458;9.940;2022-09-12T03:42:30;10.30;99.90
9271;DHT22;4673;53.458;9.940;2022-09-12T03:44:55;10.30;99.90
9271;DHT22;4673;53.458;9.940;2022-09-12T03:47:21;10.30;99.90
9271;DHT22;4673;53.458;9.940;2022-09-12T03:49:47;10.30;99.90
9271;DHT22;4673;53.458;9.940;2022-09-12T03:52:12;10.30;99.90
9271;DHT22;4673;53.458;9.940;2022-09-12T03:54:38;10.30;99.90
9271;DHT22;4673;53.458;9.940;2022-09-12T03:57:04;10.30;99.90
9271;DHT22;4673;53.458;9.940;2022-09-12T03:59:30;10.20;99.90
9271;DHT22;4673;53.458;9.940;2022-09-12T04:01:55;10.30;99.90
9271;DHT22;4673;53.458;9.940;2022-09-12T04:04:21;10.20;99.90
9271;DHT22;4673;53.458;9.940;2022-09-12T04:06:47;10.20;99.90
9271;DHT22;4673;53.458;9.940;2022-09-12T04:09:12;10.30;99.90
9271;DHT22;4673;53.458;9.940;2022-09-12T04:11:38;10.20;99.90
9271;DHT22;4673;53.458;9.940;2022-09-12T04:14:03;10.20;99.90
9271;DHT22;4673;53.458;9.940;2022-09-12T04:16:29;10.20;99.90
9271;DHT22;4673;53.458;9.940;2022-09-12T04:18:54;10.20;99.90
9271;DHT22;4673;53.458;9.940;2022-09-12T04:21:20;10.20;99.90
9271;DHT22;4673;53.458;9.940;2022-09-12T04:23:46;10.20;99.90
9271;DHT22;4673;53.458;9.940;2022-09-12T04:26:13;10.10;99.90
9271;DHT22;4673;53.458;9.940;2022-09-12T04:28:40;10.10;99.90
9271;DHT22;4673;53.458;9.940;2022-09-12T04:31:08;10.10;99.90
9271;DHT22;4673;53.458;9.940;2022-09-12T04:33:35;10.10;99.90
9271;DHT22;4673;53.458;9.940;2022-09-12T04:36:05;10.10;99.90
9271;DHT22;4673;53.458;9.940;2022-09-12T04:38:32;10.10;99.90
9271;DHT22;4673;53.458;9.940;2022-09-12T04:40:57;10.10;99.90
9271;DHT22;4673;53.458;9.940;2022-09-12T04:43:23;10.00;99.90
9271;DHT22;4673;53.458;9.940;2022-09-12T04:45:49;10.00;99.90
9271;DHT22;4673;53.458;9.940;2022-09-12T04:48:14;10.00;99.90
9271;DHT22;4673;53.458;9.940;2022-09-12T04:50:40;10.00;99.90
9271;DHT22;4673;53.458;9.940;2022-09-12T04:53:05;10.00;99.90
9271;DHT22;4673;53.458;9.940;2022-09-12T04:55:33;10.00;99.90
9271;DHT22;4673;53.458;9.940;2022-09-12T04:58:00;10.00;99.90
9271;DHT22;4673;53.458;9.940;2022-09-12T05:00:26;10.00;99.90
9271;DHT22;4673;53.458;9.940;2022-09-12T05:02:51;10.00;99.90
9271;DHT22;4673;53.458;9.940;2022-09-12T05:05:17;10.00;99.90
9271;DHT22;4673;53.458;9.940;2022-09-12T05:07:42;10.00;99.90
9271;DHT22;4673;53.458;9.940;2022-09-12T05:10:09;10.00;99.90
9271;DHT22;4673;53.458;9.940;2022-09-12T05:12:35;10.00;99.90
9271;DHT22;4673;53.458;9.940;2022-09-12T05:15:01;10.10;99.90
9271;DHT22;4673;53.458;9.940;2022-09-12T05:17:30;10.20;99.90
9271;DHT22;4673;53.458;9.940;2022-09-12T05:19:55;10.40;99.90
9271;DHT22;4673;53.458;9.940;2022-09-12T05:22:23;10.50;99.90
9271;DHT22;4673;53.458;9.940;2022-09-12T05:24:48;10.50;99.90
9271;DHT22;4673;53.458;9.940;2022-09-12T05:27:14;10.60;99.90
9271;DHT22;4673;53.458;9.940;2022-09-12T05:29:39;10.90;99.90
9271;DHT22;4673;53.458;9.940;2022-09-12T05:32:05;11.20;99.90
9271;DHT22;4673;53.458;9.940;2022-09-12T05:34:31;11.50;99.90
9271;DHT22;4673;53.458;9.940;2022-09-12T05:36:56;11.60;99.90
9271;DHT22;4673;53.458;9.940;2022-09-12T05:39:22;11.50;99.90
9271;DHT22;4673;53.458;9.940;2022-09-12T05:41:48;11.60;99.90
9271;DHT22;4673;53.458;9.940;2022-09-12T05:44:14;11.60;99.90
9271;DHT22;4673;53.458;9.940;2022-09-12T05:46:42;11.60;99.90
9271;DHT22;4673;53.458;9.940;2022-09-12T05:49:10;11.70;99.90
9271;DHT22;4673;53.458;9.940;2022-09-12T05:51:41;11.70;99.90
9271;DHT22;4673;53.458;9.940;2022-09-12T05:54:09;11.70;99.90
9271;DHT22;4673;53.458;9.940;2022-09-12T05:56:40;11.70;99.90
9271;DHT22;4673;53.458;9.940;2022-09-12T05:59:13;11.70;99.90
9271;DHT22;4673;53.458;9.940;2022-09-12T06:01:39;11.80;99.90
9271;DHT22;4673;53.458;9.940;2022-09-12T06:04:05;11.90;99.90
9271;DHT22;4673;53.458;9.940;2022-09-12T06:06:35;12.00;99.90
9271;DHT22;4673;53.458;9.940;2022-09-12T06:09:03;12.20;99.90
9271;DHT22;4673;53.458;9.940;2022-09-12T06:11:31;12.30;99.90
9271;DHT22;4673;53.458;9.940;2022-09-12T06:13:58;12.50;99.90
9271;DHT22;4673;53.458;9.940;2022-09-12T06:16:29;12.60;99.90
9271;DHT22;4673;53.458;9.940;2022-09-12T06:18:57;12.70;99.90
9271;DHT22;4673;53.458;9.940;2022-09-12T06:21:24;12.80;99.90
9271;DHT22;4673;53.458;9.940;2022-09-12T06:23:52;12.90;99.90
9271;DHT22;4673;53.458;9.940;2022-09-12T06:26:18;13.00;99.90
9271;DHT22;4673;53.458;9.940;2022-09-12T06:28:48;13.10;99.90
9271;DHT22;4673;53.458;9.940;2022-09-12T06:31:20;13.10;99.90
9271;DHT22;4673;53.458;9.940;2022-09-12T06:33:48;13.20;99.90
9271;DHT22;4673;53.458;9.940;2022-09-12T06:36:23;13.30;99.90
9271;DHT22;4673;53.458;9.940;2022-09-12T06:39:10;13.40;99.90
9271;DHT22;4673;53.458;9.940;2022-09-12T06:41:37;13.50;99.90
9271;DHT22;4673;53.458;9.940;2022-09-12T06:44:03;13.60;99.90
9271;DHT22;4673;53.458;9.940;2022-09-12T06:46:29;13.60;99.90
9271;DHT22;4673;53.458;9.940;2022-09-12T06:49:01;13.70;99.90
9271;DHT22;4673;53.458;9.940;2022-09-12T06:51:27;13.80;99.90
9271;DHT22;4673;53.458;9.940;2022-09-12T06:53:56;13.90;99.90
9271;DHT22;4673;53.458;9.940;2022-09-12T06:56:25;14.00;99.90
9271;DHT22;4673;53.458;9.940;2022-09-12T06:58:52;14.10;99.90
9271;DHT22;4673;53.458;9.940;2022-09-12T07:01:21;14.20;99.90
9271;DHT22;4673;53.458;9.940;2022-09-12T07:03:55;14.20;99.90
9271;DHT22;4673;53.458;9.940;2022-09-12T07:06:24;14.40;99.90
9271;DHT22;4673;53.458;9.940;2022-09-12T07:08:55;14.40;99.90
9271;DHT22;4673;53.458;9.940;2022-09-12T07:11:24;14.50;99.90
9271;DHT22;4673;53.458;9.940;2022-09-12T07:13:54;14.60;99.90
9271;DHT22;4673;53.458;9.940;2022-09-12T07:16:23;14.70;99.90
9271;DHT22;4673;53.458;9.940;2022-09-12T07:18:54;14.80;99.90
9271;DHT22;4673;53.458;9.940;2022-09-12T07:21:21;14.90;99.90
9271;DHT22;4673;53.458;9.940;2022-09-12T07:23:47;15.00;99.90
9271;DHT22;4673;53.458;9.940;2022-09-12T07:26:14;15.10;99.90
9271;DHT22;4673;53.458;9.940;2022-09-12T07:28:40;15.10;99.90
9271;DHT22;4673;53.458;9.940;2022-09-12T07:31:15;15.20;99.90
9271;DHT22;4673;53.458;9.940;2022-09-12T07:33:41;15.30;99.90
9271;DHT22;4673;53.458;9.940;2022-09-12T07:36:11;15.40;99.30
9271;DHT22;4673;53.458;9.940;2022-09-12T07:38:38;15.50;99.00
9271;DHT22;4673;53.458;9.940;2022-09-12T07:41:11;15.80;98.60
9271;DHT22;4673;53.458;9.940;2022-09-12T07:43:37;16.00;98.30
9271;DHT22;4673;53.458;9.940;2022-09-12T07:46:02;16.00;96.50
9271;DHT22;4673;53.458;9.940;2022-09-12T07:48:28;16.20;95.70
9271;DHT22;4673;53.458;9.940;2022-09-12T07:51:02;16.20;94.70
9271;DHT22;4673;53.458;9.940;2022-09-12T07:53:36;16.30;93.30
9271;DHT22;4673;53.458;9.940;2022-09-12T07:56:03;16.40;92.30
9271;DHT22;4673;53.458;9.940;2022-09-12T07:58:31;16.40;91.50
9271;DHT22;4673;53.458;9.940;2022-09-12T08:01:07;16.40;91.30
9271;DHT22;4673;53.458;9.940;2022-09-12T08:03:36;16.50;91.30
9271;DHT22;4673;53.458;9.940;2022-09-12T08:06:14;16.60;91.00
9271;DHT22;4673;53.458;9.940;2022-09-12T08:08:40;16.60;90.40
9271;DHT22;4673;53.458;9.940;2022-09-12T08:11:09;16.80;89.50
9271;DHT22;4673;53.458;9.940;2022-09-12T08:13:37;16.80;89.10
9271;DHT22;4673;53.458;9.940;2022-09-12T08:16:05;16.90;88.90
9271;DHT22;4673;53.458;9.940;2022-09-12T08:18:33;17.00;88.60
9271;DHT22;4673;53.458;9.940;2022-09-12T08:21:01;17.20;87.50
9271;DHT22;4673;53.458;9.940;2022-09-12T08:23:28;17.30;86.60
9271;DHT22;4673;53.458;9.940;2022-09-12T08:26:01;17.40;84.80
9271;DHT22;4673;53.458;9.940;2022-09-12T08:28:28;17.70;84.40
9271;DHT22;4673;53.458;9.940;2022-09-12T08:30:58;17.80;83.40
9271;DHT22;4673;53.458;9.940;2022-09-12T08:33:24;18.00;82.60
9271;DHT22;4673;53.458;9.940;2022-09-12T08:35:51;18.00;82.20
9271;DHT22;4673;53.458;9.940;2022-09-12T08:38:17;18.20;81.70
9271;DHT22;4673;53.458;9.940;2022-09-12T08:41:06;18.30;81.50
9271;DHT22;4673;53.458;9.940;2022-09-12T08:47:46;18.50;80.60
9271;DHT22;4673;53.458;9.940;2022-09-12T08:55:05;19.10;76.70
9271;DHT22;4673;53.458;9.940;2022-09-12T08:57:38;19.20;76.30
9271;DHT22;4673;53.458;9.940;2022-09-12T09:00:11;19.30;75.10
9271;DHT22;4673;53.458;9.940;2022-09-12T09:05:58;19.60;73.70
9271;DHT22;4673;53.458;9.940;2022-09-12T09:08:52;19.70;72.10
9271;DHT22;4673;53.458;9.940;2022-09-12T09:11:59;19.90;71.30
9271;DHT22;4673;53.458;9.940;2022-09-12T09:17:19;20.00;71.30
9271;DHT22;4673;53.458;9.940;2022-09-12T09:22:44;20.40;71.00
9271;DHT22;4673;53.458;9.940;2022-09-12T09:25:24;20.50;70.00
9271;DHT22;4673;53.458;9.940;2022-09-12T09:30:18;20.80;67.80
9271;DHT22;4673;53.458;9.940;2022-09-12T09:32:49;20.90;68.20
9271;DHT22;4673;53.458;9.940;2022-09-12T09:43:39;21.30;64.30
9271;DHT22;4673;53.458;9.940;2022-09-12T09:46:06;21.40;63.80
9271;DHT22;4673;53.458;9.940;2022-09-12T09:48:39;21.60;62.50
9271;DHT22;4673;53.458;9.940;2022-09-12T09:51:06;21.60;63.70
9271;DHT22;4673;53.458;9.940;2022-09-12T09:53:39;21.60;60.70
9271;DHT22;4673;53.458;9.940;2022-09-12T09:56:36;21.80;59.40
9271;DHT22;4673;53.458;9.940;2022-09-12T09:59:15;21.80;58.20
9271;DHT22;4673;53.458;9.940;2022-09-12T10:01:54;21.90;58.50
9271;DHT22;4673;53.458;9.940;2022-09-12T10:04:33;21.90;59.00
9271;DHT22;4673;53.458;9.940;2022-09-12T10:07:00;21.90;57.30
9271;DHT22;4673;53.458;9.940;2022-09-12T10:09:34;21.90;57.10
9271;DHT22;4673;53.458;9.940;2022-09-12T10:12:19;21.90;57.70
9271;DHT22;4673;53.458;9.940;2022-09-12T10:14:57;22.10;57.50
9271;DHT22;4673;53.458;9.940;2022-09-12T10:17:44;22.10;56.60
9271;DHT22;4673;53.458;9.940;2022-09-12T10:20:36;22.20;55.40
9271;DHT22;4673;53.458;9.940;2022-09-12T10:25:55;22.30;53.90
9271;DHT22;4673;53.458;9.940;2022-09-12T10:28:26;22.30;54.80
9271;DHT22;4673;53.458;9.940;2022-09-12T10:30:53;22.40;54.30
9271;DHT22;4673;53.458;9.940;2022-09-12T10:33:22;22.50;53.80
9271;DHT22;4673;53.458;9.940;2022-09-12T10:35:49;22.60;53.00
9271;DHT22;4673;53.458;9.940;2022-09-12T10:38:23;22.60;54.00
9271;DHT22;4673;53.458;9.940;2022-09-12T10:41:17;22.70;54.10
9271;DHT22;4673;53.458;9.940;2022-09-12T10:43:43;22.70;53.70
9271;DHT22;4673;53.458;9.940;2022-09-12T10:48:45;23.00;52.70
9271;DHT22;4673;53.458;9.940;2022-09-12T10:53:56;23.30;51.60
9271;DHT22;4673;53.458;9.940;2022-09-12T10:56:32;23.40;51.50
9271;DHT22;4673;53.458;9.940;2022-09-12T11:04:49;23.00;52.50
9271;DHT22;4673;53.458;9.940;2022-09-12T11:10:27;23.20;52.30
9271;DHT22;4673;53.458;9.940;2022-09-12T11:31:51;23.50;47.30
9271;DHT22;4673;53.458;9.940;2022-09-12T11:34:37;23.60;49.20
9271;DHT22;4673;53.458;9.940;2022-09-12T11:37:10;23.70;47.80
9271;DHT22;4673;53.458;9.940;2022-09-12T11:39:44;23.90;49.00
9271;DHT22;4673;53.458;9.940;2022-09-12T11:42:19;24.00;49.20
9271;DHT22;4673;53.458;9.940;2022-09-12T11:44:58;23.70;49.20
9271;DHT22;4673;53.458;9.940;2022-09-12T11:47:26;23.50;49.10
9271;DHT22;4673;53.458;9.940;2022-09-12T11:49:53;23.70;49.10
9271;DHT22;4673;53.458;9.940;2022-09-12T11:52:24;23.90;47.80
9271;DHT22;4673;53.458;9.940;2022-09-12T11:57:29;24.10;46.10
9271;DHT22;4673;53.458;9.940;2022-09-12T12:05:30;23.90;46.70
9271;DHT22;4673;53.458;9.940;2022-09-12T12:08:01;24.00;45.40
9271;DHT22;4673;53.458;9.940;2022-09-12T12:16:30;23.90;45.40
9271;DHT22;4673;53.458;9.940;2022-09-12T12:18:59;23.90;45.00
9271;DHT22;4673;53.458;9.940;2022-09-12T12:34:41;23.40;44.80
9271;DHT22;4673;53.458;9.940;2022-09-12T12:50:23;23.90;46.50
9271;DHT22;4673;53.458;9.940;2022-09-12T12:57:52;24.30;45.60
9271;DHT22;4673;53.458;9.940;2022-09-12T13:00:31;24.40;43.70
9271;DHT22;4673;53.458;9.940;2022-09-12T13:05:39;24.70;42.30
9271;DHT22;4673;53.458;9.940;2022-09-12T13:10:50;24.80;42.00
9271;DHT22;4673;53.458;9.940;2022-09-12T13:13:27;24.90;41.80
9271;DHT22;4673;53.458;9.940;2022-09-12T13:15:55;24.90;41.10
9271;DHT22;4673;53.458;9.940;2022-09-12T13:18:26;24.80;41.60
9271;DHT22;4673;53.458;9.940;2022-09-12T13:21:09;24.90;43.20
9271;DHT22;4673;53.458;9.940;2022-09-12T13:23:36;25.00;43.00
9271;DHT22;4673;53.458;9.940;2022-09-12T13:26:03;25.00;42.00
9271;DHT22;4673;53.458;9.940;2022-09-12T13:28:34;25.00;42.10
9271;DHT22;4673;53.458;9.940;2022-09-12T13:33:52;24.90;42.10
9271;DHT22;4673;53.458;9.940;2022-09-12T13:44:28;24.60;42.00
9271;DHT22;4673;53.458;9.940;2022-09-12T13:47:00;24.50;43.80
9271;DHT22;4673;53.458;9.940;2022-09-12T13:49:32;24.30;43.40
9271;DHT22;4673;53.458;9.940;2022-09-12T13:52:04;24.10;45.40
9271;DHT22;4673;53.458;9.940;2022-09-12T13:54:32;24.00;44.50
9271;DHT22;4673;53.458;9.940;2022-09-12T13:56:58;23.90;44.30
9271;DHT22;4673;53.458;9.940;2022-09-12T13:59:24;23.90;45.70
9271;DHT22;4673;53.458;9.940;2022-09-12T14:01:50;23.80;46.20
9271;DHT22;4673;53.458;9.940;2022-09-12T14:04:20;23.80;45.80
9271;DHT22;4673;53.458;9.940;2022-09-12T14:09:40;23.80;44.50
9271;DHT22;4673;53.458;9.940;2022-09-12T14:12:30;23.80;44.10
9271;DHT22;4673;53.458;9.940;2022-09-12T14:14:57;23.90;44.50
9271;DHT22;4673;53.458;9.940;2022-09-12T14:17:47;24.00;44.20
9271;DHT22;4673;53.458;9.940;2022-09-12T14:20:15;24.10;45.10
9271;DHT22;4673;53.458;9.940;2022-09-12T14:22:43;24.20;43.70
9271;DHT22;4673;53.458;9.940;2022-09-12T14:25:20;24.30;43.80
9271;DHT22;4673;53.458;9.940;2022-09-12T14:27:55;24.50;43.50
9271;DHT22;4673;53.458;9.940;2022-09-12T14:30:32;24.50;42.70
9271;DHT22;4673;53.458;9.940;2022-09-12T14:38:45;24.10;42.20
9271;DHT22;4673;53.458;9.940;2022-09-12T14:41:19;23.70;43.60
9271;DHT22;4673;53.458;9.940;2022-09-12T14:43:50;23.50;45.40
9271;DHT22;4673;53.458;9.940;2022-09-12T14:46:46;23.30;46.20
9271;DHT22;4673;53.458;9.940;2022-09-12T14:49:33;23.20;46.20
9271;DHT22;4673;53.458;9.940;2022-09-12T14:52:02;23.10;47.50
9271;DHT22;4673;53.458;9.940;2022-09-12T14:57:02;23.00;47.20
9271;DHT22;4673;53.458;9.940;2022-09-12T14:59:41;22.90;47.50
9271;DHT22;4673;53.458;9.940;2022-09-12T15:04:43;22.60;48.60
9271;DHT22;4673;53.458;9.940;2022-09-12T15:07:31;22.50;49.20
9271;DHT22;4673;53.458;9.940;2022-09-12T15:09:59;22.40;49.50
9271;DHT22;4673;53.458;9.940;2022-09-12T15:12:25;22.30;50.40
9271;DHT22;4673;53.458;9.940;2022-09-12T15:14:51;22.20;50.70
9271;DHT22;4673;53.458;9.940;2022-09-12T15:17:17;22.20;51.00
9271;DHT22;4673;53.458;9.940;2022-09-12T15:19:43;22.10;51.40
9271;DHT22;4673;53.458;9.940;2022-09-12T15:22:12;22.10;51.30
9271;DHT22;4673;53.458;9.940;2022-09-12T15:24:38;22.10;51.40
9271;DHT22;4673;53.458;9.940;2022-09-12T15:27:10;22.10;51.00
9271;DHT22;4673;53.458;9.940;2022-09-12T15:29:37;22.00;50.60
9271;DHT22;4673;53.458;9.940;2022-09-12T15:32:03;22.10;51.00
9271;DHT22;4673;53.458;9.940;2022-09-12T15:34:30;22.10;50.70
9271;DHT22;4673;53.458;9.940;2022-09-12T15:36:56;22.20;50.40
9271;DHT22;4673;53.458;9.940;2022-09-12T15:39:22;22.30;49.70
9271;DHT22;4673;53.458;9.940;2022-09-12T15:41:47;22.30;50.10
9271;DHT22;4673;53.458;9.940;2022-09-12T15:44:13;22.20;50.90
9271;DHT22;4673;53.458;9.940;2022-09-12T15:46:39;22.20;49.50
9271;DHT22;4673;53.458;9.940;2022-09-12T15:49:05;22.10;50.00
9271;DHT22;4673;53.458;9.940;2022-09-12T15:51:33;22.00;50.30
9271;DHT22;4673;53.458;9.940;2022-09-12T15:54:02;21.90;50.40
9271;DHT22;4673;53.458;9.940;2022-09-12T15:56:28;21.80;50.90
9271;DHT22;4673;53.458;9.940;2022-09-12T15:58:53;21.80;51.60
9271;DHT22;4673;53.458;9.940;2022-09-12T16:01:19;21.70;50.70
9271;DHT22;4673;53.458;9.940;2022-09-12T16:03:45;21.50;51.30
9271;DHT22;4673;53.458;9.940;2022-09-12T16:06:11;21.40;51.60
9271;DHT22;4673;53.458;9.940;2022-09-12T16:08:39;21.20;52.20
9271;DHT22;4673;53.458;9.940;2022-09-12T16:11:23;21.10;53.00
9271;DHT22;4673;53.458;9.940;2022-09-12T16:13:54;21.10;53.60
9271;DHT22;4673;53.458;9.940;2022-09-12T16:16:20;21.00;54.10
9271;DHT22;4673;53.458;9.940;2022-09-12T16:18:45;20.90;55.20
9271;DHT22;4673;53.458;9.940;2022-09-12T16:21:11;20.90;55.80
9271;DHT22;4673;53.458;9.940;2022-09-12T16:23:36;20.90;55.90
9271;DHT22;4673;53.458;9.940;2022-09-12T16:26:05;20.80;56.10
9271;DHT22;4673;53.458;9.940;2022-09-12T16:28:31;20.70;56.70
9271;DHT22;4673;53.458;9.940;2022-09-12T16:30:59;20.80;56.40
9271;DHT22;4673;53.458;9.940;2022-09-12T16:33:25;20.70;56.50
9271;DHT22;4673;53.458;9.940;2022-09-12T16:35:52;20.60;56.50
9271;DHT22;4673;53.458;9.940;2022-09-12T16:38:21;20.50;57.10
9271;DHT22;4673;53.458;9.940;2022-09-12T16:40:47;20.40;57.70
9271;DHT22;4673;53.458;9.940;2022-09-12T16:43:13;20.30;58.30
9271;DHT22;4673;53.458;9.940;2022-09-12T16:45:42;20.10;58.50
9271;DHT22;4673;53.458;9.940;2022-09-12T16:48:08;20.10;59.00
9271;DHT22;4673;53.458;9.940;2022-09-12T16:50:33;20.00;59.70
9271;DHT22;4673;53.458;9.940;2022-09-12T16:52:59;19.90;60.00
9271;DHT22;4673;53.458;9.940;2022-09-12T16:55:24;19.90;60.30
9271;DHT22;4673;53.458;9.940;2022-09-12T16:57:52;19.90;60.90
9271;DHT22;4673;53.458;9.940;2022-09-12T17:00:18;19.70;61.10
9271;DHT22;4673;53.458;9.940;2022-09-12T17:02:44;19.60;61.50
9271;DHT22;4673;53.458;9.940;2022-09-12T17:05:09;19.50;62.00
9271;DHT22;4673;53.458;9.940;2022-09-12T17:07:35;19.50;62.40
9271;DHT22;4673;53.458;9.940;2022-09-12T17:10:00;19.40;62.60
9271;DHT22;4673;53.458;9.940;2022-09-12T17:12:26;19.40;63.40
9271;DHT22;4673;53.458;9.940;2022-09-12T17:14:51;19.30;63.80
9271;DHT22;4673;53.458;9.940;2022-09-12T17:17:17;19.30;64.00
9271;DHT22;4673;53.458;9.940;2022-09-12T17:19:43;19.30;64.30
9271;DHT22;4673;53.458;9.940;2022-09-12T17:22:08;19.30;64.80
9271;DHT22;4673;53.458;9.940;2022-09-12T17:24:34;19.20;64.90
9271;DHT22;4673;53.458;9.940;2022-09-12T17:27:00;19.30;65.00
9271;DHT22;4673;53.458;9.940;2022-09-12T17:29:25;19.30;65.10
9271;DHT22;4673;53.458;9.940;2022-09-12T17:31:51;19.30;65.30
9271;DHT22;4673;53.458;9.940;2022-09-12T17:34:19;19.20;65.30
9271;DHT22;4673;53.458;9.940;2022-09-12T17:36:45;19.10;65.50
9271;DHT22;4673;53.458;9.940;2022-09-12T17:39:13;19.10;66.10
9271;DHT22;4673;53.458;9.940;2022-09-12T17:41:40;19.20;66.20
9271;DHT22;4673;53.458;9.940;2022-09-12T17:44:11;19.10;66.40
9271;DHT22;4673;53.458;9.940;2022-09-12T17:46:38;19.00;66.50
9271;DHT22;4673;53.458;9.940;2022-09-12T17:49:09;18.90;66.70
9271;DHT22;4673;53.458;9.940;2022-09-12T17:51:35;18.90;67.00
9271;DHT22;4673;53.458;9.940;2022-09-12T17:54:03;18.80;67.30
9271;DHT22;4673;53.458;9.940;2022-09-12T17:56:31;18.80;67.70
9271;DHT22;4673;53.458;9.940;2022-09-12T17:58:58;18.80;67.80
9271;DHT22;4673;53.458;9.940;2022-09-12T18:01:25;18.80;68.00
9271;DHT22;4673;53.458;9.940;2022-09-12T18:04:09;18.70;68.10
9271;DHT22;4673;53.458;9.940;2022-09-12T18:06:35;18.70;68.50
9271;DHT22;4673;53.458;9.940;2022-09-12T18:09:03;18.60;68.60
9271;DHT22;4673;53.458;9.940;2022-09-12T18:11:31;18.40;69.00
9271;DHT22;4673;53.458;9.940;2022-09-12T18:13:57;18.40;69.10
9271;DHT22;4673;53.458;9.940;2022-09-12T18:16:23;18.30;69.60
9271;DHT22;4673;53.458;9.940;2022-09-12T18:18:49;18.20;69.80
9271;DHT22;4673;53.458;9.940;2022-09-12T18:21:15;18.20;70.30
9271;DHT22;4673;53.458;9.940;2022-09-12T18:23:41;18.10;70.80
9271;DHT22;4673;53.458;9.940;2022-09-12T18:26:09;18.10;71.10
9271;DHT22;4673;53.458;9.940;2022-09-12T18:28:36;18.10;71.00
9271;DHT22;4673;53.458;9.940;2022-09-12T18:31:03;18.10;71.10
9271;DHT22;4673;53.458;9.940;2022-09-12T18:33:29;18.00;71.10
9271;DHT22;4673;53.458;9.940;2022-09-12T18:35:54;17.90;71.60
9271;DHT22;4673;53.458;9.940;2022-09-12T18:38:20;17.90;71.90
9271;DHT22;4673;53.458;9.940;2022-09-12T18:40:46;17.90;72.30
9271;DHT22;4673;53.458;9.940;2022-09-12T18:43:11;17.80;72.30
9271;DHT22;4673;53.458;9.940;2022-09-12T18:45:38;17.80;72.60
9271;DHT22;4673;53.458;9.940;2022-09-12T18:48:04;17.70;73.00
9271;DHT22;4673;53.458;9.940;2022-09-12T18:50:31;17.60;73.30
9271;DHT22;4673;53.458;9.940;2022-09-12T18:52:57;17.50;73.70
9271;DHT22;4673;53.458;9.940;2022-09-12T18:55:22;17.40;74.00
9271;DHT22;4673;53.458;9.940;2022-09-12T18:57:48;17.30;74.40
9271;DHT22;4673;53.458;9.940;2022-09-12T19:00:15;17.30;74.60
9271;DHT22;4673;53.458;9.940;2022-09-12T19:02:41;17.30;74.70
9271;DHT22;4673;53.458;9.940;2022-09-12T19:05:07;17.20;74.90
9271;DHT22;4673;53.458;9.940;2022-09-12T19:07:32;17.20;75.10
9271;DHT22;4673;53.458;9.940;2022-09-12T19:09:58;17.10;75.40
9271;DHT22;4673;53.458;9.940;2022-09-12T19:12:23;17.00;75.70
9271;DHT22;4673;53.458;9.940;2022-09-12T19:14:49;17.00;75.90
9271;DHT22;4673;53.458;9.940;2022-09-12T19:17:17;17.00;76.00
9271;DHT22;4673;53.458;9.940;2022-09-12T19:19:46;16.90;76.40
9271;DHT22;4673;53.458;9.940;2022-09-12T19:22:11;16.90;76.60
9271;DHT22;4673;53.458;9.940;2022-09-12T19:24:37;16.90;76.80